createdAt,value
2022-11-16T00:01:30.650Z,109.70
2022-11-16T00:04:04.541Z,111.20
2022-11-16T00:06:36.313Z,119.20
2022-11-16T00:09:23.520Z,111.10
2022-11-16T00:11:57.416Z,115.90
2022-11-16T00:14:31.364Z,121.80
2022-11-16T00:17:04.065Z,112.30
2022-11-16T00:19:35.878Z,118.60
2022-11-16T00:22:07.533Z,117.00
2022-11-16T00:24:39.145Z,119.90
2022-11-16T00:27:10.687Z,121.50
2022-11-16T00:29:42.295Z,126.00
2022-11-16T00:32:13.939Z,123.40
2022-11-16T00:34:45.517Z,118.30
2022-11-16T00:37:17.046Z,112.30
2022-11-16T00:39:48.603Z,114.00
2022-11-16T00:42:20.183Z,113.50
2022-11-16T00:44:51.707Z,117.00
2022-11-16T00:47:23.483Z,116.50
2022-11-16T00:49:55.048Z,109.70
2022-11-16T00:52:26.705Z,123.40
2022-11-16T00:54:58.241Z,119.70
2022-11-16T00:57:30.010Z,122.10
2022-11-16T01:00:01.598Z,121.40
2022-11-16T01:02:33.368Z,114.30
2022-11-16T01:05:05.337Z,127.30
2022-11-16T01:07:39.660Z,117.80
2022-11-16T01:10:16.511Z,109.40
2022-11-16T01:12:49.661Z,117.00
2022-11-16T01:15:23.475Z,118.90
2022-11-16T01:17:56.313Z,114.90
2022-11-16T01:20:30.429Z,114.40
2022-11-16T01:23:02.141Z,113.40
2022-11-16T01:25:33.905Z,118.40
2022-11-16T01:28:05.681Z,111.20
2022-11-16T01:30:37.338Z,106.00
2022-11-16T01:33:08.881Z,112.70
2022-11-16T01:35:43.748Z,111.00
2022-11-16T01:38:15.478Z,116.00
2022-11-16T01:40:47.244Z,108.20
2022-11-16T01:43:21.522Z,112.00
2022-11-16T01:45:53.449Z,108.10
2022-11-16T01:48:30.437Z,109.90
2022-11-16T01:51:02.668Z,107.40
2022-11-16T01:53:34.733Z,102.20
2022-11-16T01:56:08.373Z,107.00
2022-11-16T01:58:40.200Z,105.30
2022-11-16T02:01:11.776Z,102.20
2022-11-16T02:03:44.026Z,102.30
2022-11-16T02:06:47.998Z,102.30
2022-11-16T02:09:57.402Z,104.90
2022-11-16T02:12:46.633Z,104.50
2022-11-16T02:15:26.396Z,107.10
2022-11-16T02:18:12.886Z,108.50
2022-11-16T02:20:55.908Z,106.20
2022-11-16T02:23:50.727Z,109.80
2022-11-16T02:26:40.508Z,102.20
2022-11-16T02:29:22.554Z,99.70
2022-11-16T02:32:01.523Z,98.10
2022-11-16T02:34:39.231Z,108.10
2022-11-16T02:37:15.977Z,107.20
2022-11-16T02:39:50.842Z,110.00
2022-11-16T02:42:29.850Z,109.60
2022-11-16T02:45:04.181Z,112.00
2022-11-16T02:47:38.193Z,110.60
2022-11-16T02:50:15.722Z,107.80
2022-11-16T02:52:47.549Z,104.70
2022-11-16T02:55:19.384Z,105.90
2022-11-16T02:57:56.703Z,111.10
2022-11-16T03:00:31.619Z,110.60
2022-11-16T03:03:10.053Z,102.00
2022-11-16T03:05:45.295Z,102.60
2022-11-16T03:08:23.682Z,100.10
2022-11-16T03:11:17.478Z,93.80
2022-11-16T03:13:49.962Z,95.10
2022-11-16T03:16:27.567Z,103.00
2022-11-16T03:19:01.474Z,105.30
2022-11-16T03:21:38.615Z,103.20
2022-11-16T03:24:11.564Z,102.40
2022-11-16T03:26:55.933Z,100.20
2022-11-16T03:29:31.670Z,102.90
2022-11-16T03:32:12.888Z,96.10
2022-11-16T03:34:49.533Z,104.00
2022-11-16T03:37:23.083Z,103.40
2022-11-16T03:39:56.357Z,103.50
2022-11-16T03:42:29.399Z,98.50
2022-11-16T03:45:01.685Z,102.50
2022-11-16T03:47:33.990Z,102.90
2022-11-16T03:50:06.731Z,114.10
2022-11-16T03:52:38.965Z,125.70
2022-11-16T03:55:11.674Z,124.50
2022-11-16T03:57:43.217Z,109.80
2022-11-16T04:00:15.784Z,107.90
2022-11-16T04:02:47.297Z,107.60
2022-11-16T04:05:36.923Z,102.30
2022-11-16T04:08:30.571Z,108.60
2022-11-16T04:11:19.771Z,106.90
2022-11-16T04:14:10.172Z,100.30
2022-11-16T04:16:59.109Z,101.80
2022-11-16T04:19:57.932Z,104.80
2022-11-16T04:22:51.735Z,97.70
2022-11-16T04:25:28.351Z,102.80
2022-11-16T04:28:16.670Z,96.50
2022-11-16T04:31:08.785Z,101.50
2022-11-16T04:33:58.719Z,98.40
2022-11-16T04:36:48.114Z,99.20
2022-11-16T04:39:19.609Z,103.40
2022-11-16T04:42:08.994Z,94.10
2022-11-16T04:45:09.839Z,95.30
2022-11-16T04:47:41.336Z,89.90
2022-11-16T04:50:13.430Z,91.90
2022-11-16T04:52:44.962Z,93.90
2022-11-16T04:55:16.541Z,76.70
2022-11-16T04:57:48.050Z,82.90
2022-11-16T05:00:20.970Z,87.20
2022-11-16T05:02:56.853Z,88.40
2022-11-16T05:05:31.601Z,84.60
2022-11-16T05:08:03.286Z,86.90
2022-11-16T05:10:35.033Z,91.40
2022-11-16T05:13:06.557Z,89.00
2022-11-16T05:15:38.082Z,88.50
2022-11-16T05:18:09.674Z,81.90
2022-11-16T05:20:59.069Z,82.20
2022-11-16T05:23:48.326Z,86.90
2022-11-16T05:26:19.824Z,84.00
2022-11-16T05:28:51.343Z,90.40
2022-11-16T05:31:22.949Z,89.40
2022-11-16T05:33:54.575Z,93.10
2022-11-16T05:36:26.148Z,91.10
2022-11-16T05:38:57.699Z,91.70
2022-11-16T05:41:29.265Z,84.30
2022-11-16T05:44:00.861Z,85.40
2022-11-16T05:46:32.525Z,91.50
2022-11-16T05:49:04.140Z,90.20
2022-11-16T05:51:35.796Z,86.00
2022-11-16T05:54:08.303Z,81.10
2022-11-16T05:56:39.945Z,91.30
2022-11-16T05:59:16.450Z,88.60
2022-11-16T06:01:49.081Z,89.20
2022-11-16T06:04:24.817Z,88.90
2022-11-16T06:06:56.749Z,87.00
2022-11-16T06:09:28.377Z,88.40
2022-11-16T06:12:00.046Z,89.70
2022-11-16T06:14:31.590Z,95.60
2022-11-16T06:17:03.105Z,95.40
2022-11-16T06:19:35.606Z,89.90
2022-11-16T06:22:07.131Z,86.60
2022-11-16T06:24:38.762Z,88.10
2022-11-16T06:27:10.334Z,96.90
2022-11-16T06:29:41.853Z,92.60
2022-11-16T06:32:14.693Z,93.30
2022-11-16T06:34:46.225Z,92.60
2022-11-16T06:37:18.896Z,89.80
2022-11-16T06:39:50.390Z,95.30
2022-11-16T06:42:22.134Z,96.50
2022-11-16T06:44:53.825Z,96.30
2022-11-16T06:47:25.371Z,99.40
2022-11-16T06:49:56.885Z,100.70
2022-11-16T06:52:28.553Z,108.60
2022-11-16T06:55:00.074Z,100.90
2022-11-16T06:57:31.642Z,95.80
2022-11-16T07:00:03.843Z,105.40
2022-11-16T07:02:37.166Z,106.20
2022-11-16T07:05:10.332Z,101.60
2022-11-16T07:07:41.834Z,112.30
2022-11-16T07:10:14.342Z,101.60
2022-11-16T07:12:45.867Z,105.70
2022-11-16T07:15:17.783Z,108.20
2022-11-16T07:17:49.359Z,110.30
2022-11-16T07:20:21.186Z,109.00
2022-11-16T07:22:52.855Z,109.70
2022-11-16T07:25:24.345Z,106.00
2022-11-16T07:27:55.970Z,99.40
2022-11-16T07:30:27.746Z,97.50
2022-11-16T07:33:02.629Z,110.00
2022-11-16T07:35:34.149Z,105.40
2022-11-16T07:38:05.673Z,99.20
2022-11-16T07:40:37.403Z,105.20
2022-11-16T07:43:08.909Z,102.40
2022-11-16T07:45:40.499Z,103.50
2022-11-16T07:48:12.034Z,100.00
2022-11-16T07:50:43.549Z,108.00
2022-11-16T07:53:15.410Z,88.40
2022-11-16T07:55:52.207Z,80.90
2022-11-16T07:58:24.160Z,90.40
2022-11-16T08:00:55.728Z,83.80
2022-11-16T08:03:27.238Z,89.50
2022-11-16T08:06:03.804Z,80.40
2022-11-16T08:08:35.770Z,81.90
2022-11-16T08:11:09.810Z,81.10
2022-11-16T08:13:42.522Z,85.40
2022-11-16T08:16:16.501Z,83.60
2022-11-16T08:18:49.605Z,86.20
2022-11-16T08:21:21.680Z,80.30
2022-11-16T08:23:58.125Z,74.60
2022-11-16T08:26:30.371Z,70.40
2022-11-16T08:29:01.930Z,63.60
2022-11-16T08:31:33.578Z,64.50
2022-11-16T08:34:05.234Z,73.70
2022-11-16T08:36:37.288Z,71.30
2022-11-16T08:39:08.887Z,73.10
2022-11-16T08:41:42.212Z,71.90
2022-11-16T08:44:15.481Z,73.80
2022-11-16T08:46:46.987Z,73.30
2022-11-16T08:49:18.524Z,73.00
2022-11-16T08:51:50.170Z,73.50
2022-11-16T08:54:22.227Z,74.30
2022-11-16T08:56:53.986Z,73.30
2022-11-16T08:59:25.602Z,70.80
2022-11-16T09:01:57.181Z,68.10
2022-11-16T09:04:32.718Z,68.10
2022-11-16T09:07:07.423Z,70.90
2022-11-16T09:09:39.042Z,68.80
2022-11-16T09:12:10.699Z,73.00
2022-11-16T09:14:42.422Z,73.60
2022-11-16T09:17:16.554Z,71.00
2022-11-16T09:19:51.781Z,75.20
2022-11-16T09:22:23.443Z,71.60
2022-11-16T09:24:54.945Z,67.50
2022-11-16T09:27:26.510Z,67.40
2022-11-16T09:29:58.269Z,66.20
2022-11-16T09:32:29.810Z,67.60
2022-11-16T09:35:01.692Z,62.40
2022-11-16T09:37:33.233Z,64.20
2022-11-16T09:40:05.320Z,63.40
2022-11-16T09:42:45.922Z,62.90
2022-11-16T09:45:25.999Z,65.20
2022-11-16T09:48:02.414Z,63.50
2022-11-16T09:50:41.045Z,66.30
2022-11-16T09:53:25.983Z,56.30
2022-11-16T09:56:00.771Z,65.10
2022-11-16T09:58:39.037Z,64.80
2022-11-16T10:01:23.633Z,68.80
2022-11-16T10:04:00.086Z,68.50
2022-11-16T10:06:42.861Z,75.20
2022-11-16T10:09:14.920Z,72.60
2022-11-16T10:12:06.604Z,67.00
2022-11-16T10:15:04.808Z,67.30
2022-11-16T10:17:48.620Z,65.40
2022-11-16T10:20:44.913Z,72.30
2022-11-16T10:23:26.209Z,74.20
2022-11-16T10:26:05.693Z,85.60
2022-11-16T10:29:05.666Z,82.70
2022-11-16T10:31:56.307Z,84.10
2022-11-16T10:34:32.943Z,84.00
2022-11-16T10:37:08.575Z,81.20
2022-11-16T10:39:41.260Z,86.90
2022-11-16T10:42:19.184Z,80.90
2022-11-16T10:44:58.373Z,76.70
2022-11-16T10:47:38.569Z,80.30
2022-11-16T10:50:27.111Z,85.80
2022-11-16T10:52:58.795Z,75.80
2022-11-16T10:55:30.553Z,84.90
2022-11-16T10:58:04.544Z,83.20
2022-11-16T11:00:46.143Z,87.30
2022-11-16T11:03:30.212Z,85.10
2022-11-16T11:08:34.270Z,98.60
2022-11-16T11:11:21.507Z,104.00
2022-11-16T11:14:11.274Z,110.20
2022-11-16T11:16:43.548Z,106.70
2022-11-16T11:19:27.416Z,98.50
2022-11-16T11:22:02.667Z,102.70
2022-11-16T11:24:44.437Z,103.40
2022-11-16T11:27:22.361Z,98.60
2022-11-16T11:29:58.701Z,53.40
2022-11-16T11:32:35.865Z,35.80
2022-11-16T11:35:22.954Z,24.30
2022-11-16T11:37:57.517Z,17.00
2022-11-16T11:40:30.617Z,23.30
2022-11-16T11:43:03.518Z,16.60
2022-11-16T11:45:46.183Z,21.00
2022-11-16T11:48:31.402Z,14.70
2022-11-16T11:51:12.275Z,19.30
2022-11-16T11:53:52.758Z,15.40
2022-11-16T11:56:25.855Z,13.30
2022-11-16T11:58:58.249Z,14.80
2022-11-16T12:01:51.288Z,9.30
2022-11-16T12:05:02.662Z,12.00
2022-11-16T12:07:52.762Z,11.80
2022-11-16T12:10:36.037Z,10.10
2022-11-16T12:13:27.914Z,9.50
2022-11-16T12:16:10.461Z,11.20
2022-11-16T12:18:57.034Z,12.90
2022-11-16T12:21:42.234Z,10.60
2022-11-16T12:24:25.347Z,8.00
2022-11-16T12:27:10.731Z,6.40
2022-11-16T12:29:54.438Z,7.30
2022-11-16T12:32:40.871Z,6.10
2022-11-16T12:35:29.493Z,5.30
2022-11-16T12:38:12.056Z,6.60
2022-11-16T12:41:01.395Z,10.60
2022-11-16T12:43:44.197Z,13.90
2022-11-16T12:46:24.476Z,11.30
2022-11-16T12:49:27.314Z,10.20
2022-11-16T12:52:11.274Z,10.30
2022-11-16T12:57:59.579Z,9.10
2022-11-16T13:00:39.584Z,7.30
2022-11-16T13:03:20.109Z,8.00
2022-11-16T13:05:58.287Z,10.30
2022-11-16T13:08:49.507Z,10.60
2022-11-16T13:11:24.543Z,11.40
2022-11-16T13:14:01.033Z,13.10
2022-11-16T13:16:33.496Z,14.30
2022-11-16T13:19:08.453Z,20.30
2022-11-16T13:21:47.648Z,23.80
2022-11-16T13:24:39.957Z,34.30
2022-11-16T13:27:27.351Z,51.70
2022-11-16T13:30:06.632Z,184.10
2022-11-16T13:32:50.470Z,98.20
2022-11-16T13:35:23.136Z,257.40
2022-11-16T13:37:54.789Z,259.40
2022-11-16T13:40:29.165Z,206.90
2022-11-16T13:43:16.866Z,189.90
2022-11-16T13:45:57.083Z,392.80
2022-11-16T13:48:34.486Z,71.80
2022-11-16T13:51:09.794Z,36.60
2022-11-16T13:56:52.504Z,11.50
2022-11-16T13:59:29.940Z,11.20
2022-11-16T14:02:04.084Z,11.70
2022-11-16T14:04:57.483Z,6.90
2022-11-16T14:07:44.921Z,7.00
2022-11-16T14:10:53.798Z,13.90
2022-11-16T14:13:44.202Z,39.50
2022-11-16T14:16:43.235Z,13.70
2022-11-16T14:19:47.556Z,8.40
2022-11-16T14:22:34.816Z,10.20
2022-11-16T14:25:17.336Z,10.10
2022-11-16T14:27:56.573Z,19.80
2022-11-16T14:30:32.304Z,11.40
2022-11-16T14:33:04.211Z,19.60
2022-11-16T14:35:38.066Z,55.20
2022-11-16T14:38:21.779Z,36.20
2022-11-16T14:40:59.443Z,22.00
2022-11-16T14:43:37.017Z,16.70
2022-11-16T14:46:15.823Z,10.10
2022-11-16T14:48:48.484Z,9.20
2022-11-16T14:51:25.713Z,8.90
2022-11-16T14:54:01.929Z,13.00
2022-11-16T14:56:33.493Z,8.50
2022-11-16T14:59:05.463Z,7.00
2022-11-16T15:01:40.406Z,12.80
2022-11-16T15:04:13.260Z,12.40
2022-11-16T15:06:49.065Z,24.10
2022-11-16T15:09:27.229Z,10.10
2022-11-16T15:12:17.982Z,24.30
2022-11-16T15:14:53.713Z,18.20
2022-11-16T15:17:31.759Z,16.40
2022-11-16T15:20:16.026Z,9.70
2022-11-16T15:22:51.850Z,11.00
2022-11-16T15:25:29.322Z,15.30
2022-11-16T15:28:03.617Z,47.80
2022-11-16T15:30:37.510Z,31.60
2022-11-16T15:33:17.572Z,9.80
2022-11-16T15:35:49.361Z,7.50
2022-11-16T15:38:24.246Z,13.80
2022-11-16T15:40:58.582Z,12.60
2022-11-16T15:43:35.847Z,12.60
2022-11-16T15:46:10.702Z,7.80
2022-11-16T15:48:43.035Z,9.60
2022-11-16T15:51:20.072Z,13.80
2022-11-16T15:53:53.191Z,10.20
2022-11-16T15:56:33.755Z,14.20
2022-11-16T15:59:13.824Z,14.90
2022-11-16T16:01:46.395Z,10.70
2022-11-16T16:04:20.493Z,19.60
2022-11-16T16:06:54.652Z,24.30
2022-11-16T16:09:29.585Z,16.90
2022-11-16T16:12:19.500Z,32.50
2022-11-16T16:14:53.433Z,16.90
2022-11-16T16:17:27.369Z,12.80
2022-11-16T16:20:01.332Z,11.60
2022-11-16T16:22:35.145Z,11.30
2022-11-16T16:25:26.988Z,12.20
2022-11-16T16:27:58.864Z,9.80
2022-11-16T16:30:33.091Z,10.90
2022-11-16T16:33:04.782Z,10.00
2022-11-16T16:35:36.444Z,15.20
2022-11-16T16:38:15.334Z,14.10
2022-11-16T16:40:46.920Z,13.60
2022-11-16T16:43:18.487Z,10.80
2022-11-16T16:45:50.510Z,9.20
2022-11-16T16:48:22.037Z,11.00
2022-11-16T16:50:53.540Z,12.20
2022-11-16T16:53:25.396Z,14.20
2022-11-16T16:55:57.045Z,14.50
2022-11-16T16:58:28.557Z,15.70
2022-11-16T17:01:04.600Z,16.30
2022-11-16T17:03:36.460Z,13.90
2022-11-16T17:06:08.947Z,14.50
2022-11-16T17:08:40.838Z,12.60
2022-11-16T17:11:12.425Z,9.90
2022-11-16T17:13:44.423Z,10.50
2022-11-16T17:16:16.784Z,10.40
2022-11-16T17:18:48.628Z,10.60
2022-11-16T17:21:20.218Z,13.10
2022-11-16T17:23:51.826Z,14.80
2022-11-16T17:26:24.841Z,19.20
2022-11-16T17:28:58.475Z,15.70
2022-11-16T17:34:00.589Z,15.00
2022-11-16T17:36:32.203Z,16.90
2022-11-16T17:39:04.003Z,12.60
2022-11-16T17:41:35.551Z,12.20
2022-11-16T17:44:08.647Z,14.50
2022-11-16T17:46:47.108Z,14.30
2022-11-16T17:49:18.666Z,11.40
2022-11-16T17:51:50.209Z,16.00
2022-11-16T17:54:21.778Z,12.60
2022-11-16T17:56:53.310Z,10.50
2022-11-16T17:59:29.397Z,11.60
2022-11-16T18:02:02.203Z,8.90
2022-11-16T18:04:33.788Z,8.70
2022-11-16T18:07:05.478Z,8.20
2022-11-16T18:09:37.186Z,10.10
2022-11-16T18:12:09.069Z,7.50
2022-11-16T18:14:42.376Z,8.80
2022-11-16T18:19:44.733Z,7.40
2022-11-16T18:22:16.246Z,6.10
2022-11-16T18:24:47.758Z,7.70
2022-11-16T18:27:19.345Z,6.50
2022-11-16T18:29:50.847Z,6.70
2022-11-16T18:32:22.375Z,6.00
2022-11-16T18:34:54.179Z,5.50
2022-11-16T18:37:25.934Z,6.30
2022-11-16T18:39:57.498Z,5.80
2022-11-16T18:42:29.047Z,7.90
2022-11-16T18:45:00.555Z,6.00
2022-11-16T18:47:32.079Z,5.80
2022-11-16T18:50:03.673Z,8.00
2022-11-16T18:52:35.208Z,11.70
2022-11-16T18:55:09.132Z,6.30
2022-11-16T18:57:40.611Z,5.90
2022-11-16T19:00:16.122Z,5.60
2022-11-16T19:02:47.632Z,5.30
2022-11-16T19:05:19.165Z,4.40
2022-11-16T19:07:50.699Z,5.50
2022-11-16T19:10:22.177Z,4.60
2022-11-16T19:12:53.679Z,3.20
2022-11-16T19:15:26.406Z,4.00
2022-11-16T19:18:19.895Z,3.90
2022-11-16T19:20:49.402Z,3.90
2022-11-16T19:23:20.919Z,5.30
2022-11-16T19:26:04.896Z,7.50
2022-11-16T19:31:14.474Z,6.30
2022-11-16T19:33:46.625Z,5.80
2022-11-16T19:36:19.858Z,4.10
2022-11-16T19:38:51.773Z,4.90
2022-11-16T19:41:24.629Z,3.70
2022-11-16T19:43:59.673Z,4.40
2022-11-16T19:46:33.188Z,4.70
2022-11-16T19:49:05.460Z,4.60
2022-11-16T19:51:38.418Z,8.50
2022-11-16T19:54:13.850Z,8.40
2022-11-16T19:56:49.308Z,5.60
2022-11-16T19:59:23.554Z,5.10
2022-11-16T20:01:55.077Z,6.10
2022-11-16T20:04:32.042Z,5.00
2022-11-16T20:07:05.577Z,6.00
2022-11-16T20:12:08.150Z,4.00
2022-11-16T20:14:42.370Z,5.10
2022-11-16T20:17:14.125Z,5.40
2022-11-16T20:19:49.775Z,7.80
2022-11-16T20:22:21.282Z,6.50
2022-11-16T20:24:54.770Z,10.80
2022-11-16T20:27:32.320Z,10.20
2022-11-16T20:30:09.347Z,7.80
2022-11-16T20:32:41.359Z,7.50
2022-11-16T20:35:18.824Z,7.20
2022-11-16T20:37:50.789Z,8.60
2022-11-16T20:40:22.477Z,8.10
2022-11-16T20:42:59.050Z,8.20
2022-11-16T20:45:33.011Z,7.30
2022-11-16T20:48:05.296Z,5.30
2022-11-16T20:50:36.853Z,5.80
2022-11-16T20:53:08.363Z,7.70
2022-11-16T20:55:39.871Z,5.60
2022-11-16T20:58:11.416Z,5.90
2022-11-16T21:00:43.096Z,8.60
2022-11-16T21:03:14.766Z,6.80
2022-11-16T21:05:50.722Z,7.30
2022-11-16T21:08:22.478Z,7.10
2022-11-16T21:10:54.653Z,5.70
2022-11-16T21:13:44.026Z,6.80
2022-11-16T21:16:17.461Z,5.10
2022-11-16T21:18:48.974Z,4.40
2022-11-16T21:21:20.473Z,3.50
2022-11-16T21:23:53.254Z,3.70
2022-11-16T21:26:26.448Z,4.40
2022-11-16T21:28:58.894Z,3.00
2022-11-16T21:31:32.167Z,6.10
2022-11-16T21:34:03.724Z,5.40
2022-11-16T21:36:36.101Z,4.70
2022-11-16T21:39:08.116Z,5.50
2022-11-16T21:41:39.646Z,5.80
2022-11-16T21:44:11.147Z,4.30
2022-11-16T21:46:42.677Z,5.10
2022-11-16T21:49:14.215Z,5.30
2022-11-16T21:51:45.702Z,4.60
2022-11-16T21:54:17.197Z,4.10
2022-11-16T21:56:48.910Z,5.20
2022-11-16T21:59:20.565Z,5.10
2022-11-16T22:02:01.486Z,4.00
2022-11-16T22:04:50.804Z,6.10
2022-11-16T22:07:36.928Z,5.10
2022-11-16T22:10:11.159Z,5.30
2022-11-16T22:12:42.789Z,5.40
2022-11-16T22:15:14.889Z,5.00
2022-11-16T22:17:46.856Z,5.30
2022-11-16T22:20:19.637Z,5.50
2022-11-16T22:22:51.356Z,5.50
2022-11-16T22:25:22.999Z,5.00
2022-11-16T22:30:51.459Z,5.40
2022-11-16T22:33:23.767Z,4.10
2022-11-16T22:35:55.629Z,5.40
2022-11-16T22:38:27.617Z,5.50
2022-11-16T22:40:59.700Z,7.10
2022-11-16T22:43:32.602Z,4.50
2022-11-16T22:46:05.815Z,4.90
2022-11-16T22:48:39.538Z,5.00
2022-11-16T22:51:18.875Z,5.00
2022-11-16T22:53:53.336Z,4.90
2022-11-16T22:56:25.416Z,5.30
2022-11-16T22:58:57.425Z,4.30
2022-11-16T23:01:29.511Z,5.80
2022-11-16T23:04:01.362Z,4.30
2022-11-16T23:06:33.286Z,6.50
2022-11-16T23:09:04.998Z,5.00
2022-11-16T23:11:54.422Z,6.40
2022-11-16T23:14:43.897Z,5.10
2022-11-16T23:17:15.673Z,5.20
2022-11-16T23:20:17.659Z,4.20
2022-11-16T23:23:07.696Z,4.60
2022-11-16T23:25:57.215Z,5.70
2022-11-16T23:28:28.827Z,4.90
2022-11-16T23:31:00.426Z,5.00
2022-11-16T23:33:44.981Z,6.60
2022-11-16T23:36:16.806Z,6.20
2022-11-16T23:38:48.374Z,4.40
2022-11-16T23:41:37.965Z,7.40
2022-11-16T23:44:09.723Z,5.90
2022-11-16T23:46:41.452Z,7.50
2022-11-16T23:49:13.146Z,5.50
2022-11-16T23:51:44.808Z,4.60
2022-11-16T23:54:16.447Z,5.20
2022-11-16T23:56:48.106Z,5.90
2022-11-16T23:59:19.739Z,3.60
